Attività con fini culturali e ricreativi - Codice Fiscale 91122750689  

I bollettini meteorologici codificati usati in aviazione sono chiamati METAR. Contengono in ordine: la località, l'orario dell'osservazione, il vento, la visibilità, la copertura nuvolosa con eventuali fenomeni significativi, la temperatura, il punto di rugiada e la pressione atmosferica.    Scopri come leggerli...
Si riportano di seguito le ultime 90 osservazioni meteorologiche effettuate dall'aeroporto di Pescara.

LIBP 290650Z 23011G21KT 210V280 9999 FEW040 30/11 Q1004
LIBP 290550Z VRB03KT 9999 FEW030 29/11 Q1003
LIBP 290450Z AUTO VRB02KT 9999 NCD 28/13 Q1003
LIBP 290350Z AUTO 23011KT 9999 NCD 27/12 Q1002
LIBP 290250Z AUTO 22010KT 9999 NCD 27/13 Q1002
LIBP 290150Z AUTO 21004KT 190V250 9999 NCD 25/15 Q1002
LIBP 290050Z AUTO 24006KT 220V280 9999 NCD 28/14 Q1002
LIBP 282350Z AUTO 23006KT 210V270 9999 SCT150/// 28/14 Q1002
LIBP 282250Z AUTO 23008KT 9999 NCD 29/13 Q1002
LIBP 282150Z AUTO 23013KT 9999 NCD 30/13 Q1002
LIBP 282050Z 22011KT CAVOK 30/12 Q1001
LIBP 281950Z 04005KT 310V080 CAVOK 29/15 Q1001
LIBP 281850Z 31003KT 190V340 CAVOK 29/16 Q1000
LIBP 281750Z 18008KT CAVOK 32/16 Q1001
LIBP 281650Z VRB07G17KT 9999 FEW045 33/17 Q1002
LIBP 281550Z 09004KT 010V140 9999 SCT060 31/20 Q1004
LIBP 281450Z 10009KT 070V140 9999 FEW060 31/18 Q1005
LIBP 281350Z 09007KT 060V120 9999 FEW050 29/16 Q1006
LIBP 281302Z 04009KT 7000 FEW020 FEW050CB 27/21 Q1007 RETS
LIBP 281250Z 06012KT 020V080 4000 -TSRA FEW050CB SCT070 27/20 Q1006
LIBP 281050Z 15005KT CAVOK 33/15 Q1006
LIBP 280950Z 20005KT CAVOK 32/15 Q1006
LIBP 280850Z 08003KT 020V130 CAVOK 32/18 Q1007
LIBP 280750Z VRB02KT CAVOK 31/18 Q1007
LIBP 280650Z 25003KT 210V320 CAVOK 27/22 Q1007
LIBP 280550Z 01004KT 340V050 CAVOK 26/22 Q1007
LIBP 280450Z AUTO VRB01KT 9999 FEW140/// SCT240/// 25/21 Q1006
LIBP 272150Z AUTO VRB02KT 9999 FEW250/// 25/22 Q1007
LIBP 272050Z VRB02KT CAVOK 26/22 Q1007
LIBP 271950Z 33003KT 280V020 CAVOK 26/22 Q1007
LIBP 271850Z 35006KT CAVOK 26/22 Q1006
LIBP 271750Z 35007KT 310V010 CAVOK 28/23 Q1006
LIBP 271650Z 36008KT 9999 FEW025 28/22 Q1006
LIBP 271550Z 05007KT 030V090 CAVOK 29/23 Q1006
LIBP 271450Z 06012KT CAVOK 30/23 Q1007
LIBP 271350Z 07010KT 030V100 CAVOK 32/20 Q1007
LIBP 271250Z 07009KT 010V120 CAVOK 31/22 Q1008
LIBP 271150Z 09011KT 040V120 CAVOK 31/21 Q1008
LIBP 271050Z 08008KT 060V130 CAVOK 31/21 Q1008
LIBP 270950Z 05007KT 360V080 CAVOK 29/21 Q1009
LIBP 270850Z 04006KT 020V080 CAVOK 29/23 Q1010
LIBP 270750Z 06005KT 010V100 CAVOK 29/22 Q1010
LIBP 270650Z VRB02KT CAVOK 29/20 Q1010
LIBP 270550Z VRB01KT CAVOK 26/21 Q1010
LIBP 270450Z AUTO VRB02KT 9999 FEW150/// 23/20 Q1010
LIBP 270350Z AUTO 21003KT 9999 BKN140/// BKN180/// 22/19 Q1010
LIBP 270250Z AUTO 32003KT 280V010 9999 BKN190/// 22/20 Q1010
LIBP 270150Z AUTO VRB02KT 9999 FEW150/// 23/20 Q1010
LIBP 270050Z AUTO 20003KT 9999 FEW190/// 23/20 Q1011
LIBP 262350Z AUTO 25003KT 9999 NCD 24/20 Q1011
LIBP 262250Z AUTO 23005KT 9999 NCD 24/20 Q1012
LIBP 262150Z AUTO 22005KT 9999 NCD 24/20 Q1012
LIBP 262050Z 26002KT CAVOK 25/20 Q1013
LIBP 261950Z VRB01KT CAVOK 27/21 Q1012
LIBP 261850Z VRB01KT CAVOK 27/20 Q1012
LIBP 261750Z VRB02KT CAVOK 28/20 Q1012
LIBP 261650Z 04006KT 010V080 CAVOK 28/21 Q1012
LIBP 261550Z 06008KT CAVOK 28/21 Q1012
LIBP 261450Z 05007KT 360V080 CAVOK 29/21 Q1013
LIBP 261350Z 07008KT 020V090 CAVOK 29/22 Q1013
LIBP 261250Z 05008KT CAVOK 29/21 Q1013
LIBP 261150Z 03009KT 010V080 CAVOK 29/21 Q1013
LIBP 261050Z 04010KT 010V070 CAVOK 29/21 Q1014
LIBP 260950Z 04011KT 9999 FEW060 29/18 Q1013
LIBP 260850Z 03010KT 360V060 CAVOK 30/19 Q1013
LIBP 260750Z VRB04KT CAVOK 30/18 Q1013
LIBP 260650Z 22006KT 190V260 CAVOK 27/20 Q1013
LIBP 260550Z 23005KT CAVOK 25/20 Q1013
LIBP 260450Z AUTO 22006KT 9999 NCD 23/20 Q1013
LIBP 260350Z AUTO 25003KT 9999 NCD 22/20 Q1013
LIBP 260250Z AUTO 21005KT 9999 NCD 21/19 Q1012
LIBP 260150Z AUTO VRB02KT 9999 NCD 24/20 Q1012
LIBP 260050Z AUTO VRB02KT 9999 FEW120/// 25/20 Q1012
LIBP 252350Z AUTO 05005KT 9999 NCD 24/20 Q1012
LIBP 252250Z AUTO VRB02KT 9999 NCD 24/20 Q1012
LIBP 252150Z AUTO 24004KT 9999 SCT200/// 26/20 Q1012
LIBP 252050Z 22006KT CAVOK 26/20 Q1013
LIBP 251950Z 35008KT 300V030 9999 FEW020 26/21 Q1013
LIBP 251915Z 36016KT 320V030 9999 SCT020 27/21 Q1012
LIBP 251850Z 03007KT 9999 FEW020 28/24 Q1011
LIBP 251750Z 03005KT CAVOK 29/23 Q1009
LIBP 251650Z 03006KT CAVOK 30/23 Q1009
LIBP 251550Z 05009KT 010V070 CAVOK 31/22 Q1009
LIBP 251450Z 04011KT 9999 FEW050 32/23 Q1009
LIBP 251350Z 05010KT 020V080 9999 FEW050 33/20 Q1010

Fonte: National Oceanic and Atmospheric Administration (NOAA)

Ultimi caricamenti...


I-BBPE Babcock AgustaWestland AW169

 


I-BBPE Babcock AgustaWestland AW169

 


I-BBPE Babcock AgustaWestland AW169

Questo sito non utilizza cookie di profilazione. Il sito utilizza cookie tecnici, di analisi anonima di prima parte e di terze parti per servizi di social network.